Time;durP1;ratioP1;P1;durP2;ratioP2;P2;SDS_P1;SDS_P2;PMS_P1;PMS_P2;Temp;Humidity;BMP_temperature;BMP_pressure;BME280_temperature;BME280_humidity;BME280_pressure;Samples;Min_cycle;Max_cycle;Signal;HPM_P1;HPM_P2
2023/10/05 00:02:57;;;;;;;18.20;10.13;;;12.80;99.90;;;;;;5075157;29;20046;-76
2023/10/05 00:05:28;;;;;;;20.52;11.63;;;12.90;99.90;;;;;;5104598;29;20036;-82
2023/10/05 00:07:58;;;;;;;19.05;10.63;;;12.90;99.90;;;;;;5105191;29;20042;-83
2023/10/05 00:10:30;;;;;;;20.20;9.80;;;13.10;99.90;;;;;;5105097;29;20505;-83
2023/10/05 00:13:05;;;;;;;20.42;11.10;;;12.70;99.90;;;;;;5105315;29;20035;-79
2023/10/05 00:15:36;;;;;;;20.40;10.77;;;12.70;99.90;;;;;;5097902;29;20039;-83
2023/10/05 00:18:07;;;;;;;21.20;11.27;;;12.90;99.90;;;;;;5084177;29;20091;-76
2023/10/05 00:20:38;;;;;;;18.42;11.20;;;12.70;99.90;;;;;;5084128;29;20039;-83
2023/10/05 00:23:09;;;;;;;19.73;10.80;;;12.90;99.90;;;;;;5085315;29;20393;-83
2023/10/05 00:25:40;;;;;;;23.27;11.70;;;12.80;99.90;;;;;;5084252;29;20035;-84
2023/10/05 00:28:12;;;;;;;19.88;11.15;;;13.00;99.90;;;;;;5085162;29;20035;-80
2023/10/05 00:30:42;;;;;;;19.55;10.68;;;12.80;99.90;;;;;;5085349;29;20040;-85
2023/10/05 00:33:13;;;;;;;17.90;10.25;;;12.80;99.90;;;;;;5085045;29;20079;-84
2023/10/05 00:35:44;;;;;;;19.83;10.55;;;12.70;99.90;;;;;;5083778;29;20063;-82
2023/10/05 00:38:16;;;;;;;20.42;11.30;;;12.80;99.90;;;;;;5084671;29;20112;-84
2023/10/05 00:40:57;;;;;;;22.95;12.65;;;12.50;99.90;;;;;;5084288;29;20024;-83
2023/10/05 00:43:28;;;;;;;21.50;11.00;;;12.60;99.90;;;;;;5084647;29;20035;-82
2023/10/05 00:45:59;;;;;;;17.67;10.85;;;12.60;99.90;;;;;;5083703;29;20776;-84
2023/10/05 00:48:34;;;;;;;19.08;11.18;;;12.70;99.90;;;;;;5082791;29;20381;-83
2023/10/05 00:51:23;;;;;;;18.05;10.25;;;12.90;99.90;;;;;;5082816;29;20051;-83
2023/10/05 00:53:56;;;;;;;17.92;10.20;;;12.70;99.90;;;;;;5083283;29;20381;-83
2023/10/05 00:56:33;;;;;;;19.05;10.15;;;12.70;99.90;;;;;;5083737;29;20020;-84
2023/10/05 00:59:09;;;;;;;17.55;10.05;;;12.60;99.90;;;;;;5084548;29;20075;-84
2023/10/05 01:02:59;;;;;;;21.45;10.80;;;12.70;99.90;;;;;;5083745;29;20102;-84
2023/10/05 01:07:18;;;;;;;20.08;11.50;;;12.60;99.90;;;;;;5084480;29;20366;-82
2023/10/05 01:12:43;;;;;;;23.88;12.18;;;12.50;99.90;;;;;;5085495;29;20081;-83
2023/10/05 01:15:24;;;;;;;18.08;10.48;;;12.50;99.90;;;;;;5085564;29;20063;-86
2023/10/05 01:17:56;;;;;;;19.02;11.43;;;12.40;99.90;;;;;;5085462;29;20060;-75
2023/10/05 01:20:29;;;;;;;16.70;10.35;;;12.40;99.90;;;;;;5085048;29;20034;-82
2023/10/05 01:23:01;;;;;;;21.58;10.93;;;12.50;99.90;;;;;;5084873;29;20032;-83
2023/10/05 01:25:32;;;;;;;21.42;11.38;;;12.50;99.90;;;;;;5084878;29;20049;-82
2023/10/05 01:28:04;;;;;;;23.35;12.18;;;12.40;99.90;;;;;;5085105;29;20104;-80
2023/10/05 01:30:38;;;;;;;18.65;10.90;;;12.80;99.90;;;;;;5085021;29;20028;-82
2023/10/05 01:33:08;;;;;;;20.05;11.35;;;12.40;99.90;;;;;;5084700;29;20027;-82
2023/10/05 01:35:43;;;;;;;18.00;11.55;;;13.10;99.90;;;;;;5084240;29;20483;-81
2023/10/05 01:38:14;;;;;;;17.38;10.95;;;12.50;99.90;;;;;;5084194;29;20051;-81
2023/10/05 01:40:49;;;;;;;21.80;11.55;;;12.40;99.90;;;;;;5083496;29;20040;-81
2023/10/05 01:43:20;;;;;;;19.20;11.63;;;12.40;99.90;;;;;;5083640;29;20031;-82
2023/10/05 01:45:51;;;;;;;21.60;12.02;;;12.40;99.90;;;;;;5083277;29;20050;-79
2023/10/05 01:48:26;;;;;;;21.85;11.50;;;12.30;99.90;;;;;;5082533;29;20020;-78
2023/10/05 01:51:08;;;;;;;20.40;11.68;;;12.20;99.90;;;;;;5082194;29;20032;-84
2023/10/05 01:53:40;;;;;;;18.60;11.95;;;12.20;99.90;;;;;;5083503;29;20032;-83
2023/10/05 01:56:23;;;;;;;17.52;11.32;;;12.00;99.90;;;;;;5084524;29;20146;-84
2023/10/05 01:58:55;;;;;;;23.95;11.48;;;12.30;99.90;;;;;;5083127;29;20042;-76
2023/10/05 02:01:28;;;;;;;17.77;10.88;;;12.40;99.90;;;;;;5084432;29;20028;-83
2023/10/05 02:03:59;;;;;;;21.25;11.23;;;12.10;99.90;;;;;;5084455;29;20013;-85
2023/10/05 02:06:39;;;;;;;18.27;11.82;;;12.10;99.90;;;;;;5085588;29;20480;-83
2023/10/05 02:09:14;;;;;;;18.20;11.82;;;12.10;99.90;;;;;;5087856;29;20032;-83
2023/10/05 02:11:45;;;;;;;17.38;10.60;;;12.10;99.90;;;;;;5087804;29;20040;-83
2023/10/05 02:14:16;;;;;;;19.75;11.23;;;12.30;99.90;;;;;;5087515;29;20032;-79
2023/10/05 02:16:49;;;;;;;20.33;11.55;;;12.00;99.90;;;;;;5086437;29;20036;-78
2023/10/05 02:19:22;;;;;;;18.70;12.15;;;12.30;99.90;;;;;;5087781;29;20052;-84
2023/10/05 02:21:55;;;;;;;20.35;12.43;;;12.30;99.90;;;;;;5087749;29;20476;-84
2023/10/05 02:24:29;;;;;;;19.73;12.25;;;12.20;99.90;;;;;;5087650;29;20028;-75
2023/10/05 02:29:32;;;;;;;18.13;11.32;;;11.90;99.90;;;;;;5087730;29;20044;-83
2023/10/05 02:34:44;;;;;;;19.13;12.95;;;12.00;99.90;;;;;;5087028;29;20115;-82
2023/10/05 02:37:19;;;;;;;20.67;13.23;;;12.10;99.90;;;;;;5086081;29;20127;-79
2023/10/05 02:39:50;;;;;;;18.77;11.73;;;12.20;99.90;;;;;;5084938;29;20044;-83
2023/10/05 02:42:25;;;;;;;18.45;11.40;;;12.20;99.90;;;;;;5084973;29;20032;-79
2023/10/05 02:45:02;;;;;;;18.75;12.40;;;12.10;99.90;;;;;;5084689;29;20036;-76
2023/10/05 02:47:51;;;;;;;21.75;11.27;;;12.10;99.90;;;;;;5086223;29;20021;-75
2023/10/05 02:50:22;;;;;;;22.50;11.05;;;11.70;99.90;;;;;;5086725;29;20103;-76
2023/10/05 02:52:54;;;;;;;22.08;11.43;;;11.80;99.90;;;;;;5085850;29;20048;-83
2023/10/05 02:55:28;;;;;;;18.92;10.77;;;11.90;99.90;;;;;;5087237;29;20115;-84
2023/10/05 02:57:59;;;;;;;22.40;11.60;;;11.80;99.90;;;;;;5087129;29;20051;-76
2023/10/05 03:00:33;;;;;;;22.80;11.45;;;11.80;99.90;;;;;;5087232;29;20429;-83
2023/10/05 03:03:05;;;;;;;16.85;10.50;;;11.90;99.90;;;;;;5085721;29;20097;-81
2023/10/05 03:05:41;;;;;;;23.15;11.93;;;12.10;99.90;;;;;;5086976;29;20362;-76
2023/10/05 03:08:12;;;;;;;19.30;10.98;;;11.90;99.90;;;;;;5086808;29;20025;-81
2023/10/05 03:10:44;;;;;;;19.15;11.10;;;11.90;99.90;;;;;;5085193;29;20136;-76
2023/10/05 03:13:14;;;;;;;25.55;11.55;;;11.80;99.90;;;;;;5087064;29;20365;-80
2023/10/05 03:15:45;;;;;;;21.95;12.18;;;11.70;99.90;;;;;;5083511;29;20040;-80
2023/10/05 03:18:16;;;;;;;21.48;11.57;;;11.80;99.90;;;;;;5086634;29;20032;-85
2023/10/05 03:20:47;;;;;;;22.85;12.20;;;11.80;99.90;;;;;;5085381;29;20518;-85
2023/10/05 03:23:18;;;;;;;19.77;10.93;;;11.90;99.90;;;;;;5086647;29;20396;-86
2023/10/05 03:25:53;;;;;;;23.02;12.05;;;11.90;99.90;;;;;;5086515;29;20028;-84
2023/10/05 03:28:24;;;;;;;24.63;12.18;;;12.10;99.90;;;;;;5085378;29;20027;-82
2023/10/05 03:30:54;;;;;;;21.38;12.00;;;12.00;99.90;;;;;;5094578;29;20067;-76
2023/10/05 03:33:27;;;;;;;21.92;11.52;;;12.00;99.90;;;;;;5090526;29;20830;-83
2023/10/05 03:36:00;;;;;;;18.02;10.90;;;12.10;99.90;;;;;;5084149;29;20377;-81
2023/10/05 03:38:32;;;;;;;25.05;11.85;;;11.90;99.90;;;;;;5083981;29;20103;-81
2023/10/05 03:41:04;;;;;;;24.50;11.38;;;11.80;99.90;;;;;;5083568;29;20028;-79
2023/10/05 03:43:35;;;;;;;16.30;10.38;;;12.00;99.90;;;;;;5085164;29;20024;-80
2023/10/05 03:46:09;;;;;;;19.27;11.60;;;11.90;99.90;;;;;;5085493;29;20055;-83
2023/10/05 03:48:41;;;;;;;23.05;11.52;;;11.80;99.90;;;;;;5084394;29;20440;-83
2023/10/05 03:51:15;;;;;;;21.00;11.40;;;11.70;99.90;;;;;;5084818;29;20047;-82
2023/10/05 03:53:48;;;;;;;21.75;10.98;;;11.70;99.90;;;;;;5086163;29;20645;-82
2023/10/05 03:56:19;;;;;;;18.02;10.65;;;11.60;99.90;;;;;;5086425;29;20032;-84
2023/10/05 03:58:53;;;;;;;19.77;11.25;;;11.70;99.90;;;;;;5086151;29;20115;-83
2023/10/05 04:01:24;;;;;;;19.60;11.00;;;11.70;99.90;;;;;;5085913;29;20433;-83
2023/10/05 04:03:55;;;;;;;20.65;10.70;;;11.60;99.90;;;;;;5086151;29;20112;-83
2023/10/05 04:06:28;;;;;;;19.30;10.55;;;11.50;99.90;;;;;;5085698;29;20036;-82
2023/10/05 04:08:59;;;;;;;20.15;10.50;;;11.70;99.90;;;;;;5085577;29;20036;-77
2023/10/05 04:11:33;;;;;;;20.73;10.65;;;11.60;99.90;;;;;;5085825;29;20051;-82
2023/10/05 04:14:05;;;;;;;19.58;10.48;;;11.70;99.90;;;;;;5085710;29;20032;-82
2023/10/05 04:16:36;;;;;;;21.30;11.07;;;11.70;99.90;;;;;;5084138;29;20036;-83
2023/10/05 04:19:10;;;;;;;18.52;10.60;;;11.60;99.90;;;;;;5085621;29;20384;-82
2023/10/05 04:21:41;;;;;;;18.88;10.75;;;11.80;99.90;;;;;;5084771;29;20055;-78
2023/10/05 04:24:15;;;;;;;19.40;11.02;;;11.70;99.90;;;;;;5082911;29;20469;-79
2023/10/05 04:26:47;;;;;;;18.17;10.45;;;11.60;99.90;;;;;;5084389;29;20034;-75
2023/10/05 04:29:21;;;;;;;23.50;11.60;;;11.60;99.90;;;;;;5086331;29;20087;-78
2023/10/05 04:31:53;;;;;;;20.30;10.52;;;11.60;99.90;;;;;;5082466;29;20028;-77
2023/10/05 04:34:28;;;;;;;20.00;10.93;;;11.50;99.90;;;;;;5083691;29;20016;-83
2023/10/05 04:36:59;;;;;;;24.27;11.77;;;11.60;99.90;;;;;;5082716;29;20822;-82
2023/10/05 04:39:32;;;;;;;21.17;12.05;;;11.70;99.90;;;;;;5083866;29;20481;-78
2023/10/05 04:42:11;;;;;;;23.90;11.82;;;11.50;99.90;;;;;;5082999;29;20035;-84
2023/10/05 04:44:41;;;;;;;26.08;12.25;;;11.80;99.90;;;;;;5084692;29;20115;-83
2023/10/05 04:47:13;;;;;;;23.00;12.38;;;11.90;99.90;;;;;;5084751;29;20109;-83
2023/10/05 04:49:44;;;;;;;23.65;11.93;;;11.90;99.90;;;;;;5084845;29;20016;-82
2023/10/05 04:52:22;;;;;;;23.70;12.68;;;12.00;99.90;;;;;;5085161;29;20042;-80
2023/10/05 04:54:57;;;;;;;22.80;11.77;;;12.10;99.90;;;;;;5079869;29;20016;-84
2023/10/05 04:57:39;;;;;;;23.13;12.07;;;11.90;99.90;;;;;;5084096;29;20120;-81
2023/10/05 05:03:17;;;;;;;21.38;12.07;;;11.90;99.90;;;;;;5085288;29;20457;-83
2023/10/05 05:06:00;;;;;;;24.13;12.35;;;12.00;99.90;;;;;;5085001;29;20024;-82
2023/10/05 05:08:40;;;;;;;23.15;12.25;;;11.90;99.90;;;;;;5084849;29;20039;-75
2023/10/05 05:11:21;;;;;;;24.13;11.77;;;12.10;99.90;;;;;;5084828;29;20091;-81
2023/10/05 05:13:52;;;;;;;20.98;11.57;;;12.20;99.90;;;;;;5083616;29;20040;-83
2023/10/05 05:16:23;;;;;;;22.02;12.27;;;12.20;99.90;;;;;;5083327;29;20020;-82
2023/10/05 05:18:55;;;;;;;23.25;12.57;;;12.30;99.90;;;;;;5083311;29;20449;-82
2023/10/05 05:21:26;;;;;;;23.58;11.93;;;12.30;99.90;;;;;;5084095;29;20079;-80
2023/10/05 05:23:58;;;;;;;21.08;12.20;;;12.40;99.90;;;;;;5083849;29;20036;-83
2023/10/05 05:26:29;;;;;;;24.33;11.52;;;12.40;99.90;;;;;;5082430;29;20032;-82
2023/10/05 05:29:00;;;;;;;28.67;13.05;;;12.40;99.90;;;;;;5083413;29;20110;-82
2023/10/05 05:31:31;;;;;;;23.45;12.07;;;12.50;99.90;;;;;;5083537;29;20028;-82
2023/10/05 05:34:02;;;;;;;23.02;12.43;;;12.50;99.90;;;;;;5083750;29;20076;-83
2023/10/05 05:36:36;;;;;;;25.52;12.63;;;12.60;99.90;;;;;;5083867;29;20030;-83
2023/10/05 05:39:07;;;;;;;25.52;12.68;;;12.80;99.90;;;;;;5084148;29;20461;-84
2023/10/05 05:41:38;;;;;;;22.52;11.80;;;13.00;99.90;;;;;;5087717;29;20353;-75
2023/10/05 05:44:09;;;;;;;20.73;12.45;;;13.00;99.90;;;;;;5088294;29;20028;-79
2023/10/05 05:46:43;;;;;;;20.75;12.52;;;13.20;99.90;;;;;;5087009;29;20028;-83
2023/10/05 05:49:16;;;;;;;22.17;12.48;;;13.20;99.90;;;;;;5088299;29;20024;-83
2023/10/05 05:51:47;;;;;;;23.35;12.70;;;13.40;99.90;;;;;;5088281;29;20032;-82
2023/10/05 05:54:18;;;;;;;24.70;13.20;;;13.50;99.90;;;;;;5088156;29;20028;-84
2023/10/05 05:56:54;;;;;;;19.63;12.00;;;13.50;99.90;;;;;;5088109;29;20091;-80
2023/10/05 05:59:25;;;;;;;24.02;13.27;;;13.70;99.90;;;;;;5088123;29;20028;-79
2023/10/05 06:01:56;;;;;;;23.02;12.48;;;13.80;99.90;;;;;;5086979;29;20028;-77
2023/10/05 06:04:28;;;;;;;22.55;12.68;;;14.00;99.90;;;;;;5086925;29;20029;-75
2023/10/05 06:07:00;;;;;;;21.90;13.20;;;14.10;99.90;;;;;;5087191;29;20384;-83
2023/10/05 06:09:33;;;;;;;24.85;13.50;;;13.80;99.90;;;;;;5087171;29;20083;-82
2023/10/05 06:12:05;;;;;;;22.65;13.18;;;14.10;99.90;;;;;;5088017;29;20044;-83
2023/10/05 06:14:36;;;;;;;20.90;13.27;;;14.40;99.90;;;;;;5088296;29;20028;-80
2023/10/05 06:17:08;;;;;;;25.27;14.80;;;14.40;99.90;;;;;;5087563;29;20384;-83
2023/10/05 06:19:39;;;;;;;21.50;14.70;;;14.40;99.90;;;;;;5087358;29;20083;-83
2023/10/05 06:22:09;;;;;;;23.70;14.05;;;14.50;99.90;;;;;;5086811;29;20032;-83
2023/10/05 06:24:42;;;;;;;19.95;13.75;;;14.50;99.90;;;;;;5086595;29;20032;-83
2023/10/05 06:27:13;;;;;;;23.52;13.73;;;14.80;99.90;;;;;;5085172;29;20024;-83
2023/10/05 06:29:44;;;;;;;22.38;13.10;;;14.90;99.90;;;;;;5085210;29;20024;-83
2023/10/05 06:32:14;;;;;;;22.58;13.38;;;15.20;99.90;;;;;;5086344;29;20436;-84
2023/10/05 06:34:45;;;;;;;22.85;14.00;;;15.30;99.90;;;;;;5085343;29;20046;-83
2023/10/05 06:37:16;;;;;;;20.23;12.27;;;15.40;99.90;;;;;;5087106;29;20663;-82
2023/10/05 06:39:47;;;;;;;24.35;14.30;;;15.50;99.90;;;;;;5086155;29;20032;-83
2023/10/05 06:42:18;;;;;;;22.35;13.68;;;15.80;99.90;;;;;;5087360;29;20453;-84
2023/10/05 06:44:49;;;;;;;18.60;12.95;;;15.90;99.90;;;;;;5087030;29;20091;-82
2023/10/05 06:47:35;;;;;;;22.55;15.07;;;16.10;99.90;;;;;;5085896;29;20036;-79
2023/10/05 06:50:08;;;;;;;20.30;12.68;;;16.10;99.90;;;;;;5087143;29;20107;-84
2023/10/05 06:52:42;;;;;;;23.55;13.27;;;16.40;99.90;;;;;;5086306;29;20107;-84
2023/10/05 06:55:17;;;;;;;20.85;12.93;;;16.40;99.90;;;;;;5086974;29;20032;-76
2023/10/05 06:57:50;;;;;;;20.10;14.00;;;16.50;99.90;;;;;;5086634;29;20024;-80
2023/10/05 07:00:21;;;;;;;23.27;13.48;;;16.50;99.90;;;;;;5087068;29;20024;-81
2023/10/05 07:02:58;;;;;;;19.83;14.13;;;16.80;99.90;;;;;;5086646;29;20092;-83
2023/10/05 07:05:29;;;;;;;21.23;12.93;;;17.00;99.90;;;;;;5086499;29;20481;-83
2023/10/05 07:08:00;;;;;;;20.85;13.15;;;17.20;99.90;;;;;;5072693;29;20044;-83
2023/10/05 07:10:31;;;;;;;20.00;14.20;;;17.30;99.90;;;;;;5067790;29;20040;-84
2023/10/05 07:13:01;;;;;;;23.75;15.45;;;17.50;99.90;;;;;;5080798;29;20042;-85
2023/10/05 07:15:33;;;;;;;19.67;14.32;;;17.70;99.90;;;;;;5088086;29;20680;-86
2023/10/05 07:18:04;;;;;;;24.02;14.73;;;17.90;99.90;;;;;;5086571;29;20038;-86
2023/10/05 07:20:36;;;;;;;24.38;13.75;;;18.30;99.90;;;;;;5086719;29;20028;-86
2023/10/05 07:23:07;;;;;;;23.27;15.77;;;18.50;99.90;;;;;;5087962;29;20039;-83
2023/10/05 07:25:41;;;;;;;25.95;16.05;;;18.60;99.90;;;;;;5087599;29;20029;-84
2023/10/05 07:28:14;;;;;;;26.77;17.45;;;18.60;99.90;;;;;;5087548;29;20091;-85
2023/10/05 07:30:45;;;;;;;30.67;17.65;;;18.70;99.90;;;;;;5087686;29;20025;-85
2023/10/05 07:33:16;;;;;;;37.28;23.67;;;18.90;99.90;;;;;;5086578;29;20044;-83
2023/10/05 07:35:47;;;;;;;42.88;25.48;;;19.10;99.90;;;;;;5087352;29;20030;-85
2023/10/05 07:38:17;;;;;;;48.00;27.27;;;19.60;99.90;;;;;;5087237;29;20063;-83
2023/10/05 07:40:48;;;;;;;48.08;28.67;;;19.60;99.90;;;;;;5087857;29;20032;-78
2023/10/05 07:43:19;;;;;;;42.88;27.13;;;19.70;99.90;;;;;;5085738;29;20032;-85
2023/10/05 07:45:50;;;;;;;51.08;31.05;;;19.90;99.90;;;;;;5086259;29;20080;-77
2023/10/05 07:48:21;;;;;;;45.45;27.55;;;20.00;99.90;;;;;;5087729;29;20036;-83
2023/10/05 07:50:52;;;;;;;35.53;21.95;;;20.20;99.90;;;;;;5087638;29;20021;-81
2023/10/05 07:53:22;;;;;;;22.35;14.82;;;20.40;99.90;;;;;;5087218;29;20040;-83
2023/10/05 07:55:53;;;;;;;18.25;12.65;;;20.70;99.90;;;;;;5087266;29;20028;-82
2023/10/05 07:58:24;;;;;;;18.88;13.00;;;20.70;99.90;;;;;;5087250;29;20032;-82
2023/10/05 08:00:55;;;;;;;22.38;15.05;;;20.60;99.90;;;;;;5085960;29;20433;-84
2023/10/05 08:03:27;;;;;;;22.85;15.00;;;20.60;99.90;;;;;;5086841;29;20031;-81
2023/10/05 08:05:58;;;;;;;16.90;12.80;;;20.50;99.90;;;;;;5087190;29;20036;-86
2023/10/05 08:08:28;;;;;;;24.15;12.65;;;20.50;99.90;;;;;;5086409;29;20033;-77
2023/10/05 08:11:00;;;;;;;19.23;12.93;;;20.70;99.90;;;;;;5086849;29;20051;-85
2023/10/05 08:13:31;;;;;;;19.23;11.63;;;20.80;99.90;;;;;;5086638;29;20032;-86
2023/10/05 08:16:04;;;;;;;19.05;11.13;;;20.90;99.90;;;;;;5086864;29;20020;-77
2023/10/05 08:18:38;;;;;;;19.90;12.80;;;20.90;99.90;;;;;;5085608;29;20036;-79
2023/10/05 08:21:11;;;;;;;18.27;12.68;;;20.80;99.90;;;;;;5086826;29;20028;-83
2023/10/05 08:23:44;;;;;;;20.30;12.93;;;20.80;99.90;;;;;;5087037;29;20453;-86
2023/10/05 08:26:17;;;;;;;22.63;14.05;;;20.80;99.90;;;;;;5086781;29;20115;-85
2023/10/05 08:28:50;;;;;;;19.95;14.50;;;21.20;99.90;;;;;;5085179;29;20041;-80
2023/10/05 08:31:26;;;;;;;19.45;14.52;;;21.60;99.90;;;;;;5085171;29;20027;-86
2023/10/05 08:34:00;;;;;;;19.35;13.93;;;21.80;99.90;;;;;;5086882;29;20082;-86
2023/10/05 08:36:33;;;;;;;18.58;13.25;;;22.00;99.90;;;;;;5085546;29;20024;-84
2023/10/05 08:39:10;;;;;;;16.83;12.85;;;22.00;99.90;;;;;;5086531;29;20103;-87
2023/10/05 08:41:44;;;;;;;19.33;12.80;;;22.10;99.90;;;;;;5086540;29;20032;-87
2023/10/05 08:44:26;;;;;;;21.08;12.73;;;21.90;99.90;;;;;;5085596;29;20477;-85
2023/10/05 08:47:07;;;;;;;21.50;13.65;;;22.00;99.90;;;;;;5086944;29;20060;-85
2023/10/05 08:49:38;;;;;;;20.37;13.50;;;22.20;99.90;;;;;;5086759;29;20560;-82
2023/10/05 08:52:19;;;;;;;20.33;14.07;;;22.50;99.90;;;;;;5086711;29;20063;-82
2023/10/05 08:54:51;;;;;;;20.05;13.80;;;22.50;99.90;;;;;;5086068;29;20032;-86
2023/10/05 08:57:24;;;;;;;20.45;13.60;;;22.70;99.90;;;;;;5086367;29;20060;-87
2023/10/05 08:59:55;;;;;;;21.08;15.00;;;22.60;99.90;;;;;;5085084;29;20040;-83
2023/10/05 09:02:26;;;;;;;21.70;15.27;;;22.20;99.90;;;;;;5086421;29;20032;-78
2023/10/05 09:05:01;;;;;;;23.83;14.63;;;22.30;99.90;;;;;;5084599;29;20674;-82
2023/10/05 09:07:36;;;;;;;67.95;17.33;;;22.70;99.90;;;;;;5084886;29;20111;-82
2023/10/05 09:10:24;;;;;;;25.20;14.57;;;22.90;99.90;;;;;;5086019;29;20119;-84
2023/10/05 09:12:58;;;;;;;38.97;16.35;;;22.90;99.90;;;;;;5084522;29;20047;-84
2023/10/05 09:15:34;;;;;;;19.85;14.15;;;22.70;99.90;;;;;;5085792;29;20365;-82
2023/10/05 09:20:38;;;;;;;23.35;13.93;;;22.70;99.90;;;;;;5090105;29;20634;-83
2023/10/05 09:23:24;;;;;;;23.42;13.82;;;23.00;99.90;;;;;;5089672;29;20035;-81
2023/10/05 09:25:57;;;;;;;22.13;13.20;;;22.90;99.90;;;;;;5088910;29;20169;-83
2023/10/05 09:28:45;;;;;;;20.55;12.02;;;23.00;99.90;;;;;;5088329;29;20040;-83
2023/10/05 09:31:19;;;;;;;19.60;12.85;;;22.90;99.90;;;;;;5089673;29;20039;-77
2023/10/05 09:33:53;;;;;;;17.83;12.30;;;23.00;99.90;;;;;;5089674;29;20035;-81
2023/10/05 09:36:25;;;;;;;19.95;12.43;;;23.10;99.90;;;;;;5089957;29;20508;-82
2023/10/05 09:38:59;;;;;;;18.85;12.43;;;23.00;99.90;;;;;;5088679;29;20056;-82
2023/10/05 09:41:35;;;;;;;21.30;12.40;;;23.00;99.90;;;;;;5089867;29;20484;-83
2023/10/05 09:44:13;;;;;;;21.20;12.77;;;23.10;99.90;;;;;;5090309;29;20360;-84
2023/10/05 09:46:49;;;;;;;19.50;12.45;;;23.10;99.90;;;;;;5088921;29;20039;-84
2023/10/05 09:49:22;;;;;;;18.73;12.57;;;23.30;99.90;;;;;;5088304;29;20028;-90
2023/10/05 09:51:54;;;;;;;20.55;12.88;;;23.30;99.90;;;;;;5089061;29;20044;-88
2023/10/05 09:54:27;;;;;;;21.02;14.23;;;23.20;99.90;;;;;;5089079;29;20024;-76
2023/10/05 09:56:59;;;;;;;23.35;14.73;;;23.40;99.90;;;;;;5089441;29;20582;-80
2023/10/05 09:59:31;;;;;;;21.00;13.90;;;23.30;99.90;;;;;;5089506;29;20031;-81
2023/10/05 10:02:02;;;;;;;21.90;14.55;;;23.80;99.90;;;;;;5090082;29;20032;-82
2023/10/05 10:04:37;;;;;;;19.80;15.15;;;23.80;99.90;;;;;;5089759;29;20070;-79
2023/10/05 10:07:22;;;;;;;19.70;14.07;;;23.90;99.90;;;;;;5089669;29;20039;-79
2023/10/05 10:09:55;;;;;;;23.77;14.68;;;23.60;99.90;;;;;;5089920;29;20048;-79
2023/10/05 10:12:33;;;;;;;23.23;14.48;;;23.70;99.90;;;;;;5089644;29;20040;-80
2023/10/05 10:15:24;;;;;;;22.13;15.27;;;24.20;99.90;;;;;;5089731;29;20031;-79
2023/10/05 10:18:06;;;;;;;25.67;15.35;;;24.30;99.90;;;;;;5088392;29;20036;-80
2023/10/05 10:20:37;;;;;;;23.58;13.90;;;24.10;99.90;;;;;;5089591;29;20031;-79
2023/10/05 10:23:14;;;;;;;21.00;12.88;;;24.00;99.90;;;;;;5089382;29;20032;-80
2023/10/05 10:25:51;;;;;;;19.60;12.18;;;24.10;99.90;;;;;;5089801;29;20535;-79
2023/10/05 10:31:17;;;;;;;21.55;11.57;;;24.30;99.90;;;;;;5089438;29;20488;-80
2023/10/05 10:33:51;;;;;;;20.08;12.10;;;24.60;99.90;;;;;;5089010;29;20063;-77
2023/10/05 10:36:46;;;;;;;18.98;10.88;;;24.30;99.90;;;;;;5089272;29;20476;-80
2023/10/05 10:39:23;;;;;;;16.05;10.90;;;24.50;99.90;;;;;;5089210;29;20396;-78
2023/10/05 10:42:04;;;;;;;19.98;12.15;;;24.40;99.90;;;;;;5089043;29;20021;-81
2023/10/05 10:47:22;;;;;;;19.60;11.45;;;24.50;99.90;;;;;;5089094;29;20103;-77
2023/10/05 10:50:21;;;;;;;17.63;11.90;;;24.70;99.90;;;;;;5087672;29;20488;-80
2023/10/05 10:52:56;;;;;;;18.13;11.27;;;24.50;99.90;;;;;;5088891;29;20385;-78
2023/10/05 10:55:31;;;;;;;20.02;12.50;;;24.40;99.90;;;;;;5089164;29;20025;-80
2023/10/05 10:58:04;;;;;;;20.83;12.10;;;24.40;99.90;;;;;;5086712;29;20024;-81
2023/10/05 11:03:12;;;;;;;19.52;11.48;;;24.50;99.90;;;;;;5086733;29;20145;-80
2023/10/05 11:05:51;;;;;;;18.45;11.15;;;24.60;99.90;;;;;;5086818;29;20469;-79
2023/10/05 11:08:22;;;;;;;19.05;12.30;;;24.50;99.90;;;;;;5085608;29;20028;-79
2023/10/05 11:11:19;;;;;;;19.02;12.98;;;24.30;99.90;;;;;;5086958;29;20031;-79
2023/10/05 11:14:05;;;;;;;20.30;12.35;;;24.50;99.90;;;;;;5086785;29;20070;-79
2023/10/05 11:16:43;;;;;;;18.90;12.55;;;24.70;99.90;;;;;;5085928;29;20061;-79
2023/10/05 11:19:20;;;;;;;23.58;12.68;;;24.70;99.90;;;;;;5086191;29;20032;-79
2023/10/05 11:21:51;;;;;;;16.90;11.68;;;24.60;99.90;;;;;;5087814;29;20111;-77
2023/10/05 11:24:25;;;;;;;22.13;12.10;;;24.40;99.90;;;;;;5087359;29;20063;-78
2023/10/05 11:29:42;;;;;;;19.95;12.77;;;24.10;99.90;;;;;;5087315;29;20084;-76
2023/10/05 11:32:13;;;;;;;22.10;13.68;;;24.00;99.90;;;;;;5087264;29;20064;-77
2023/10/05 11:34:45;;;;;;;20.05;12.20;;;23.90;99.90;;;;;;5087105;29;20059;-79
2023/10/05 11:37:18;;;;;;;22.23;13.60;;;24.00;99.90;;;;;;5087053;29;20447;-79
2023/10/05 11:39:58;;;;;;;21.55;13.13;;;23.90;99.90;;;;;;5086958;29;20128;-79
2023/10/05 11:42:34;;;;;;;22.17;13.05;;;24.10;99.90;;;;;;5086963;29;20047;-79
2023/10/05 11:45:13;;;;;;;21.77;14.02;;;24.20;99.90;;;;;;5086966;29;20107;-79
2023/10/05 11:47:52;;;;;;;23.90;14.27;;;24.30;99.90;;;;;;5087480;29;20567;-80
2023/10/05 11:50:35;;;;;;;20.83;13.57;;;24.20;99.90;;;;;;5087042;29;20032;-79
2023/10/05 11:53:11;;;;;;;25.27;14.02;;;24.20;99.90;;;;;;5086843;29;20127;-79
2023/10/05 11:55:47;;;;;;;21.17;13.60;;;24.40;99.90;;;;;;5085462;29;20032;-80
2023/10/05 11:58:18;;;;;;;25.00;13.25;;;24.40;99.90;;;;;;5086287;29;20087;-79
2023/10/05 12:00:50;;;;;;;18.55;12.68;;;24.40;99.90;;;;;;5085979;29;20042;-78
2023/10/05 12:06:02;;;;;;;23.05;13.90;;;24.20;99.90;;;;;;5511313;23;20059;-79
2023/10/05 12:08:34;;;;;;;19.05;12.80;;;24.40;99.90;;;;;;5125109;28;20012;-79
2023/10/05 12:11:05;;;;;;;19.92;13.32;;;24.10;99.90;;;;;;5123737;29;20035;-79
2023/10/05 12:13:36;;;;;;;21.05;13.13;;;24.30;99.90;;;;;;5124470;28;20395;-79
2023/10/05 12:16:11;;;;;;;19.88;12.52;;;24.40;99.90;;;;;;5125610;28;20360;-79
2023/10/05 12:18:42;;;;;;;19.92;12.93;;;24.40;99.90;;;;;;5122269;28;20035;-78
2023/10/05 12:21:13;;;;;;;18.88;12.52;;;24.50;99.90;;;;;;5122217;28;20486;-80
2023/10/05 12:23:44;;;;;;;18.02;12.93;;;24.50;99.90;;;;;;5125725;28;20135;-82
2023/10/05 12:26:15;;;;;;;22.02;12.65;;;24.50;99.90;;;;;;5124618;28;20126;-83
2023/10/05 12:28:46;;;;;;;19.48;12.20;;;24.20;99.90;;;;;;5114152;28;20059;-87
2023/10/05 12:31:17;;;;;;;18.02;13.43;;;23.80;99.90;;;;;;5105860;29;20039;-83
2023/10/05 12:33:50;;;;;;;20.67;14.30;;;23.60;99.90;;;;;;5106201;29;20024;-83
2023/10/05 12:36:22;;;;;;;19.25;13.10;;;23.30;99.90;;;;;;5106222;29;20035;-78
2023/10/05 12:38:53;;;;;;;18.05;12.98;;;23.30;99.90;;;;;;5105661;29;20110;-82
2023/10/05 12:41:31;;;;;;;23.25;14.77;;;23.40;99.90;;;;;;5106279;29;20111;-82
2023/10/05 12:44:02;;;;;;;22.20;14.45;;;23.50;99.90;;;;;;5106374;29;20530;-77
2023/10/05 12:46:33;;;;;;;19.75;13.15;;;23.50;99.90;;;;;;5106448;29;20024;-79
2023/10/05 12:49:07;;;;;;;22.02;13.93;;;23.50;99.90;;;;;;5104780;29;20464;-82
2023/10/05 12:51:39;;;;;;;23.23;13.43;;;23.40;99.90;;;;;;5106171;29;20071;-80
2023/10/05 12:54:28;;;;;;;21.33;13.77;;;23.30;99.90;;;;;;5104885;29;20059;-81
2023/10/05 12:57:08;;;;;;;24.20;14.68;;;23.10;99.90;;;;;;5106393;29;20439;-81
2023/10/05 12:59:42;;;;;;;20.95;13.52;;;23.10;99.90;;;;;;5104724;29;20400;-80
2023/10/05 13:02:16;;;;;;;26.70;14.52;;;23.10;99.90;;;;;;5109768;29;20054;-81
2023/10/05 13:04:47;;;;;;;20.63;14.18;;;23.10;99.90;;;;;;5104661;29;20400;-79
2023/10/05 13:07:21;;;;;;;20.60;15.48;;;22.90;99.90;;;;;;5105542;29;20494;-76
2023/10/05 13:10:08;;;;;;;23.35;15.73;;;23.00;99.90;;;;;;5104806;29;20875;-76
2023/10/05 13:12:39;;;;;;;24.70;13.85;;;22.90;99.90;;;;;;5104735;29;20043;-77
2023/10/05 13:15:11;;;;;;;23.85;14.20;;;23.00;99.90;;;;;;5104556;29;20028;-76
2023/10/05 13:17:46;;;;;;;22.50;14.27;;;23.00;99.90;;;;;;5105957;29;20031;-79
2023/10/05 13:20:23;;;;;;;23.63;13.85;;;22.80;99.90;;;;;;5105853;29;20368;-80
2023/10/05 13:22:54;;;;;;;19.40;13.77;;;22.90;99.90;;;;;;5105426;29;20044;-78
2023/10/05 13:25:26;;;;;;;22.25;12.90;;;22.90;99.90;;;;;;5104176;29;20123;-75
2023/10/05 13:27:56;;;;;;;22.88;12.30;;;22.90;99.90;;;;;;5103576;29;20027;-75
2023/10/05 13:30:40;;;;;;;25.38;14.13;;;22.80;99.90;;;;;;5102334;29;20038;-75
2023/10/05 13:33:17;;;;;;;19.52;12.52;;;22.80;99.90;;;;;;5103124;29;20619;-76